Time;durP1;ratioP1;P1;durP2;ratioP2;P2;SDS_P1;SDS_P2;PMS_P1;PMS_P2;Temp;Humidity;BMP_temperature;BMP_pressure;BME280_temperature;BME280_humidity;BME280_pressure;Samples;Min_cycle;Max_cycle;Signal;HPM_P1;HPM_P2
2021/10/19 00:00:27;;;;;;;19.30;12.45;;;12.00;73.80;;;;;;5035158;28;20382;-73
2021/10/19 00:02:53;;;;;;;19.10;12.15;;;12.00;73.50;;;;;;5035334;28;20033;-72
2021/10/19 00:05:19;;;;;;;18.35;11.77;;;12.00;75.90;;;;;;5050677;28;20112;-72
2021/10/19 00:07:45;;;;;;;15.30;9.82;;;12.00;91.00;;;;;;5035343;28;20378;-72
2021/10/19 00:10:14;;;;;;;13.82;10.82;;;11.90;75.00;;;;;;5035010;28;20033;-72
2021/10/19 00:12:41;;;;;;;15.15;10.15;;;11.90;72.20;;;;;;5035115;28;20097;-72
2021/10/19 00:15:11;;;;;;;20.42;11.10;;;11.90;73.50;;;;;;5034675;28;20028;-72
2021/10/19 00:17:38;;;;;;;16.35;10.75;;;11.90;73.70;;;;;;5034846;28;20087;-72
2021/10/19 00:20:05;;;;;;;13.48;10.30;;;11.80;73.70;;;;;;5034967;28;20018;-72
2021/10/19 00:22:31;;;;;;;11.73;9.70;;;11.80;73.70;;;;;;5034956;28;20520;-72
2021/10/19 00:24:57;;;;;;;13.20;9.48;;;11.80;73.20;;;;;;5034890;28;20021;-72
2021/10/19 00:27:22;;;;;;;13.02;9.40;;;11.80;73.50;;;;;;5034742;28;20030;-73
2021/10/19 00:29:48;;;;;;;12.00;9.05;;;11.80;74.00;;;;;;5034522;28;20483;-72
2021/10/19 00:32:14;;;;;;;14.48;9.90;;;11.80;75.30;;;;;;5034576;28;20045;-72
2021/10/19 00:34:40;;;;;;;10.85;9.05;;;11.80;80.90;;;;;;5034891;28;20021;-72
2021/10/19 00:37:06;;;;;;;14.43;8.75;;;;;;;;;;5034420;28;20108;-72
2021/10/19 00:39:31;;;;;;;11.98;9.20;;;11.80;90.20;;;;;;5034595;28;20066;-72
2021/10/19 00:41:57;;;;;;;14.20;9.32;;;11.80;91.20;;;;;;5034205;28;20592;-72
2021/10/19 00:44:23;;;;;;;16.65;10.18;;;11.70;92.00;;;;;;5034564;28;20033;-72
2021/10/19 00:46:49;;;;;;;16.95;10.07;;;11.70;90.70;;;;;;5034790;28;20416;-72
2021/10/19 00:49:15;;;;;;;14.73;10.85;;;11.70;91.80;;;;;;5034442;28;20036;-72
2021/10/19 00:51:41;;;;;;;15.27;10.75;;;11.70;73.60;;;;;;5034261;28;20021;-72
2021/10/19 00:54:07;;;;;;;15.85;10.27;;;11.70;75.30;;;;;;5034316;28;20036;-73
2021/10/19 00:56:38;;;;;;;14.10;10.32;;;11.50;71.10;;;;;;5034169;28;20034;-72
2021/10/19 00:59:05;;;;;;;14.85;11.07;;;11.50;71.20;;;;;;5032051;28;20496;-73
2021/10/19 01:01:31;;;;;;;13.80;10.05;;;11.50;71.40;;;;;;5031263;28;20440;-72
2021/10/19 01:03:56;;;;;;;13.45;9.60;;;11.40;71.40;;;;;;5031790;28;20028;-72
2021/10/19 01:06:22;;;;;;;13.70;9.85;;;11.40;71.50;;;;;;5033903;28;20431;-73
2021/10/19 01:08:49;;;;;;;11.23;8.85;;;11.40;71.60;;;;;;5034153;28;20022;-72
2021/10/19 01:11:15;;;;;;;12.02;8.82;;;11.40;71.40;;;;;;5033892;28;20017;-72
2021/10/19 01:13:40;;;;;;;12.35;9.43;;;11.40;72.10;;;;;;5033473;28;20023;-72
2021/10/19 01:16:08;;;;;;;13.88;9.38;;;11.50;78.70;;;;;;5033961;28;20056;-72
2021/10/19 01:18:34;;;;;;;12.43;8.57;;;11.50;77.00;;;;;;5033929;28;20030;-72
2021/10/19 01:21:01;;;;;;;12.18;8.98;;;11.40;80.70;;;;;;5033510;28;20053;-73
2021/10/19 01:23:27;;;;;;;10.68;8.35;;;11.50;80.80;;;;;;5033778;28;20457;-72
2021/10/19 01:25:52;;;;;;;14.45;8.70;;;11.30;70.50;;;;;;5033773;28;20018;-72
2021/10/19 01:28:19;;;;;;;13.18;8.20;;;11.30;70.50;;;;;;5033479;28;20024;-72
2021/10/19 01:30:47;;;;;;;16.33;8.60;;;11.20;70.60;;;;;;5033579;28;20455;-72
2021/10/19 01:33:13;;;;;;;10.75;7.95;;;11.20;70.60;;;;;;5033454;28;20128;-73
2021/10/19 01:35:45;;;;;;;18.27;9.43;;;11.20;70.60;;;;;;5033161;28;20051;-72
2021/10/19 01:38:17;;;;;;;12.50;8.83;;;11.20;70.70;;;;;;5033381;28;20482;-72
2021/10/19 01:40:43;;;;;;;11.67;9.10;;;11.20;70.70;;;;;;5033544;28;20026;-72
2021/10/19 01:43:14;;;;;;;11.18;7.97;;;11.20;70.90;;;;;;5033125;28;20021;-72
2021/10/19 01:45:41;;;;;;;16.15;8.95;;;11.20;71.00;;;;;;5033509;28;20032;-72
2021/10/19 01:48:07;;;;;;;12.00;8.57;;;11.20;70.90;;;;;;5033376;28;20017;-72
2021/10/19 01:50:34;;;;;;;13.23;8.15;;;11.10;71.20;;;;;;5031724;28;20033;-72
2021/10/19 01:52:59;;;;;;;12.38;8.50;;;11.20;72.00;;;;;;5033203;28;20063;-72
2021/10/19 01:55:25;;;;;;;13.00;8.43;;;11.30;76.60;;;;;;5032545;28;20482;-72
2021/10/19 01:57:51;;;;;;;11.95;8.13;;;11.20;73.40;;;;;;5032729;28;20108;-72
2021/10/19 02:00:17;;;;;;;10.50;7.82;;;11.10;71.20;;;;;;5031588;28;20028;-72
2021/10/19 02:02:42;;;;;;;12.68;8.38;;;11.10;71.30;;;;;;5033272;28;20056;-73
2021/10/19 02:05:09;;;;;;;12.98;9.13;;;;;;;;;;5033197;28;20021;-72
2021/10/19 02:07:36;;;;;;;12.80;9.25;;;11.20;84.00;;;;;;5033292;28;20029;-73
2021/10/19 02:10:03;;;;;;;13.15;8.70;;;11.20;87.10;;;;;;5031807;28;20033;-72
2021/10/19 02:12:29;;;;;;;10.18;7.97;;;11.20;79.20;;;;;;5031848;28;20026;-72
2021/10/19 02:14:55;;;;;;;12.35;8.27;;;11.20;90.50;;;;;;5033089;28;20025;-73
2021/10/19 02:17:20;;;;;;;11.43;8.70;;;11.20;91.10;;;;;;5033007;28;20033;-72
2021/10/19 02:19:46;;;;;;;14.57;8.55;;;11.10;74.80;;;;;;5032726;28;20059;-72
2021/10/19 02:22:11;;;;;;;12.13;8.82;;;11.10;75.30;;;;;;5032849;28;20025;-72
2021/10/19 02:24:37;;;;;;;11.32;8.63;;;11.10;75.40;;;;;;5032897;28;20014;-72
2021/10/19 02:27:03;;;;;;;14.45;8.27;;;11.00;77.60;;;;;;5032903;28;20034;-72
2021/10/19 02:31:57;;;;;;;11.13;8.07;;;11.00;85.10;;;;;;4992302;28;20043;-70
2021/10/19 02:34:23;;;;;;;9.18;7.38;;;10.90;72.30;;;;;;4993311;28;20034;-70
2021/10/19 02:36:49;;;;;;;11.02;7.40;;;10.90;72.50;;;;;;4993460;28;20035;-71
2021/10/19 02:39:15;;;;;;;10.65;7.90;;;10.80;72.00;;;;;;4993436;28;20027;-70
2021/10/19 02:41:41;;;;;;;13.38;7.90;;;10.80;71.90;;;;;;4993452;28;20046;-69
2021/10/19 02:44:07;;;;;;;11.43;8.40;;;10.80;72.30;;;;;;4993523;28;20053;-69
2021/10/19 02:46:33;;;;;;;11.27;8.25;;;10.90;77.40;;;;;;4993436;28;20022;-69
2021/10/19 02:49:00;;;;;;;13.88;9.70;;;10.80;71.80;;;;;;4993351;28;20037;-70
2021/10/19 02:51:26;;;;;;;13.10;9.73;;;10.90;80.30;;;;;;4993110;28;20117;-70
2021/10/19 02:53:53;;;;;;;13.65;9.90;;;10.90;77.70;;;;;;4993416;28;20053;-68
2021/10/19 02:56:19;;;;;;;12.63;9.98;;;10.90;77.40;;;;;;4993279;28;20022;-69
2021/10/19 02:58:45;;;;;;;11.70;10.18;;;10.90;77.30;;;;;;4993544;28;20545;-68
2021/10/19 03:01:11;;;;;;;17.77;12.23;;;10.90;77.30;;;;;;4993160;28;20030;-68
2021/10/19 03:03:37;;;;;;;18.35;11.38;;;10.90;77.50;;;;;;4993213;28;20097;-68
2021/10/19 03:06:03;;;;;;;13.38;10.80;;;10.90;78.00;;;;;;4993673;28;20118;-68
2021/10/19 03:08:28;;;;;;;19.23;14.32;;;10.90;78.00;;;;;;4993439;28;20022;-68
2021/10/19 03:10:54;;;;;;;22.08;16.05;;;10.90;77.90;;;;;;4993537;28;20034;-68
2021/10/19 03:13:20;;;;;;;19.48;16.13;;;10.90;78.00;;;;;;4993224;28;20018;-70
2021/10/19 03:15:46;;;;;;;21.48;16.00;;;10.90;77.80;;;;;;4992987;28;20026;-68
2021/10/19 03:18:12;;;;;;;15.95;12.70;;;10.90;77.90;;;;;;4993109;28;20043;-68
2021/10/19 03:20:37;;;;;;;12.90;10.95;;;10.90;77.70;;;;;;4993184;28;20023;-69
2021/10/19 03:23:03;;;;;;;11.40;9.75;;;10.90;78.10;;;;;;4993255;28;20467;-68
2021/10/19 03:25:29;;;;;;;14.75;10.65;;;10.90;77.40;;;;;;4993236;28;20109;-68
2021/10/19 03:27:54;;;;;;;12.65;10.55;;;10.90;77.40;;;;;;4993249;28;20030;-70
2021/10/19 03:30:20;;;;;;;15.15;10.93;;;10.90;77.50;;;;;;4993046;28;20050;-69
2021/10/19 03:32:46;;;;;;;13.63;10.40;;;10.90;77.40;;;;;;4994797;28;20117;-69
2021/10/19 03:35:12;;;;;;;15.48;11.18;;;10.90;77.50;;;;;;4996752;28;20030;-69
2021/10/19 03:37:38;;;;;;;13.32;10.18;;;10.90;77.50;;;;;;4996167;28;20034;-70
2021/10/19 03:40:05;;;;;;;14.45;10.40;;;10.90;77.40;;;;;;4996338;28;20395;-69
2021/10/19 03:42:31;;;;;;;14.47;10.97;;;10.90;77.40;;;;;;4996694;28;20053;-69
2021/10/19 03:44:56;;;;;;;12.75;10.07;;;10.90;77.60;;;;;;4996339;28;20022;-68
2021/10/19 03:47:22;;;;;;;15.40;11.80;;;10.90;77.50;;;;;;4996350;28;20037;-70
2021/10/19 03:49:48;;;;;;;14.98;11.32;;;10.90;77.60;;;;;;4996206;28;20492;-69
2021/10/19 03:52:14;;;;;;;14.75;12.18;;;10.90;77.80;;;;;;4996444;28;20129;-71
2021/10/19 03:54:39;;;;;;;16.10;12.85;;;10.90;77.80;;;;;;4996731;28;20027;-68
2021/10/19 03:57:07;;;;;;;18.65;13.77;;;10.90;77.90;;;;;;4996276;28;20117;-69
2021/10/19 03:59:33;;;;;;;20.20;13.87;;;10.90;78.10;;;;;;4995793;28;20030;-69
2021/10/19 04:01:59;;;;;;;19.83;15.13;;;10.90;78.10;;;;;;4995897;28;20030;-70
2021/10/19 04:04:25;;;;;;;23.42;13.95;;;10.90;78.20;;;;;;4995993;28;20498;-69
2021/10/19 04:06:51;;;;;;;22.63;12.65;;;10.90;78.10;;;;;;4994740;28;20049;-70
2021/10/19 04:09:16;;;;;;;32.92;13.98;;;10.90;77.90;;;;;;4995862;28;20041;-68
2021/10/19 04:11:42;;;;;;;22.00;12.15;;;10.90;77.80;;;;;;4995928;28;20101;-68
2021/10/19 04:14:08;;;;;;;29.05;11.02;;;10.90;77.80;;;;;;4995766;28;20459;-68
2021/10/19 04:16:34;;;;;;;15.10;9.68;;;10.90;77.60;;;;;;4995746;28;20383;-69
2021/10/19 04:19:03;;;;;;;16.67;8.77;;;10.90;77.60;;;;;;4995937;28;20037;-69
2021/10/19 04:21:29;;;;;;;24.10;8.88;;;10.90;77.50;;;;;;4995892;28;20026;-70
2021/10/19 04:23:55;;;;;;;18.17;8.95;;;10.90;77.50;;;;;;4995430;28;20494;-69
2021/10/19 04:26:21;;;;;;;18.15;8.57;;;10.90;77.60;;;;;;4995579;28;20027;-69
2021/10/19 04:28:46;;;;;;;17.77;8.95;;;10.80;77.60;;;;;;4994630;28;20038;-70
2021/10/19 04:31:13;;;;;;;13.43;7.55;;;10.90;76.00;;;;;;4995384;28;20046;-68
2021/10/19 04:33:39;;;;;;;14.50;8.02;;;10.80;74.60;;;;;;4995413;28;20364;-68
2021/10/19 04:36:05;;;;;;;16.40;8.63;;;10.70;73.20;;;;;;4995333;28;20034;-69
2021/10/19 04:38:35;;;;;;;16.60;7.53;;;10.80;76.20;;;;;;4995307;28;20046;-70
2021/10/19 04:41:02;;;;;;;14.38;8.25;;;10.70;76.40;;;;;;4995370;28;20062;-69
2021/10/19 04:43:28;;;;;;;17.40;8.32;;;10.70;79.70;;;;;;4995077;28;20433;-68
2021/10/19 04:45:54;;;;;;;16.48;8.20;;;10.80;87.60;;;;;;4995317;28;20094;-67
2021/10/19 04:48:21;;;;;;;14.20;7.60;;;10.70;88.20;;;;;;4994954;28;20026;-68
2021/10/19 04:50:48;;;;;;;17.98;8.40;;;10.70;88.40;;;;;;4995226;28;20027;-69
2021/10/19 04:53:14;;;;;;;12.93;7.83;;;10.70;77.30;;;;;;4995347;28;20029;-68
2021/10/19 04:55:40;;;;;;;17.47;7.83;;;10.70;77.40;;;;;;4995218;28;20034;-69
2021/10/19 04:58:06;;;;;;;12.98;8.00;;;10.60;79.80;;;;;;4994916;28;20038;-69
2021/10/19 05:00:32;;;;;;;16.67;8.23;;;10.70;80.20;;;;;;4994722;28;20031;-68
2021/10/19 05:02:58;;;;;;;21.02;8.00;;;10.60;80.80;;;;;;4995016;28;20023;-69
2021/10/19 05:05:24;;;;;;;14.80;8.07;;;10.60;81.10;;;;;;4994961;28;20022;-71
2021/10/19 05:07:50;;;;;;;14.45;7.88;;;10.60;84.40;;;;;;4994813;28;20105;-69
2021/10/19 05:10:17;;;;;;;16.35;9.57;;;10.60;84.00;;;;;;4994646;28;20434;-70
2021/10/19 05:12:43;;;;;;;17.67;9.03;;;10.60;80.00;;;;;;4994751;28;20101;-68
2021/10/19 05:15:09;;;;;;;16.30;9.02;;;10.60;81.20;;;;;;4994635;28;20475;-68
2021/10/19 05:17:35;;;;;;;20.88;8.98;;;10.70;90.10;;;;;;4994539;28;20034;-69
2021/10/19 05:20:01;;;;;;;15.45;9.48;;;10.60;88.30;;;;;;4994629;28;20026;-71
2021/10/19 05:22:26;;;;;;;18.03;9.03;;;10.60;91.70;;;;;;4994914;28;20022;-68
2021/10/19 05:24:52;;;;;;;15.05;8.60;;;10.60;91.90;;;;;;4994723;28;20066;-70
2021/10/19 05:27:18;;;;;;;15.55;8.77;;;10.60;92.40;;;;;;4994343;28;20018;-69
2021/10/19 05:29:44;;;;;;;16.77;8.77;;;10.60;87.50;;;;;;4994228;28;20042;-68
2021/10/19 05:32:09;;;;;;;21.63;9.40;;;10.50;91.90;;;;;;4994737;28;20035;-70
2021/10/19 05:34:35;;;;;;;20.70;9.67;;;10.50;92.10;;;;;;4994483;28;20104;-68
2021/10/19 05:37:01;;;;;;;17.50;9.00;;;10.50;92.40;;;;;;4994233;28;20053;-68
2021/10/19 05:39:26;;;;;;;14.03;7.97;;;10.50;88.60;;;;;;4993918;28;20027;-70
2021/10/19 05:41:52;;;;;;;17.53;8.80;;;10.50;88.70;;;;;;4994264;28;20529;-68
2021/10/19 05:44:18;;;;;;;20.60;8.30;;;10.50;89.20;;;;;;4994175;28;20471;-68
2021/10/19 05:46:43;;;;;;;12.93;7.87;;;10.50;89.60;;;;;;4993963;28;20037;-70
2021/10/19 05:49:09;;;;;;;14.88;7.55;;;10.50;88.40;;;;;;4992644;28;20081;-68
2021/10/19 05:51:34;;;;;;;17.23;7.47;;;10.50;89.00;;;;;;4993865;28;20038;-68
2021/10/19 05:54:00;;;;;;;18.15;7.60;;;10.40;88.70;;;;;;4993801;28;20030;-67
2021/10/19 05:56:26;;;;;;;17.70;8.10;;;10.40;87.80;;;;;;4993342;28;20431;-68
2021/10/19 05:58:52;;;;;;;20.83;8.60;;;10.40;89.50;;;;;;4993888;28;20042;-68
2021/10/19 06:01:18;;;;;;;27.38;9.43;;;10.40;89.60;;;;;;4993914;28;20432;-68
2021/10/19 06:03:44;;;;;;;20.70;8.70;;;;;;;;;;4993640;28;20114;-68
2021/10/19 06:06:13;;;;;;;23.50;8.17;;;;;;;;;;4993879;28;20434;-69
2021/10/19 06:08:39;;;;;;;21.53;8.03;;;10.40;94.90;;;;;;4993852;28;20057;-68
2021/10/19 06:11:05;;;;;;;19.33;8.57;;;10.50;93.80;;;;;;4993694;28;20058;-70
2021/10/19 06:13:31;;;;;;;33.40;8.20;;;10.50;93.40;;;;;;4993847;28;20081;-69
2021/10/19 06:15:58;;;;;;;22.33;7.87;;;10.50;92.60;;;;;;4994206;28;20395;-68
2021/10/19 06:18:24;;;;;;;20.10;8.70;;;10.50;92.20;;;;;;4993625;28;20069;-67
2021/10/19 06:20:51;;;;;;;24.90;8.10;;;10.60;91.80;;;;;;4993764;28;20398;-68
2021/10/19 06:23:18;;;;;;;27.00;8.25;;;10.50;91.40;;;;;;4993646;28;20069;-68
2021/10/19 06:25:44;;;;;;;31.60;7.87;;;10.60;93.60;;;;;;4993354;28;20088;-69
2021/10/19 06:28:10;;;;;;;26.52;8.57;;;10.60;93.20;;;;;;4993440;28;20080;-67
2021/10/19 06:30:36;;;;;;;26.50;7.50;;;10.60;94.40;;;;;;4992786;28;20121;-67
2021/10/19 06:33:01;;;;;;;21.65;7.30;;;10.70;91.70;;;;;;4991555;28;20027;-68
2021/10/19 06:35:27;;;;;;;15.30;6.22;;;10.70;90.90;;;;;;4993240;28;20027;-68
2021/10/19 06:37:53;;;;;;;19.10;7.35;;;10.80;90.40;;;;;;4993011;28;20034;-67
2021/10/19 06:40:19;;;;;;;13.10;7.07;;;10.80;88.90;;;;;;4991115;28;20069;-68
2021/10/19 06:42:45;;;;;;;17.15;6.35;;;10.80;87.80;;;;;;4981883;28;20027;-67
2021/10/19 06:45:11;;;;;;;19.45;6.82;;;10.90;84.20;;;;;;4973803;28;20094;-67
2021/10/19 06:47:38;;;;;;;14.27;6.65;;;10.90;93.50;;;;;;4974093;28;20030;-68
2021/10/19 06:50:05;;;;;;;15.50;7.20;;;11.00;81.80;;;;;;4979515;28;20065;-68
2021/10/19 06:52:32;;;;;;;20.52;7.65;;;;;;;;;;4993315;28;20475;-68
2021/10/19 06:54:58;;;;;;;15.55;8.07;;;11.10;78.00;;;;;;4982861;28;20030;-67
2021/10/19 06:57:27;;;;;;;18.30;8.45;;;11.10;74.50;;;;;;4973565;28;20042;-67
2021/10/19 06:59:53;;;;;;;17.30;8.68;;;11.30;90.30;;;;;;4973308;28;20106;-68
2021/10/19 07:02:18;;;;;;;13.18;8.40;;;11.40;81.00;;;;;;4973483;28;20027;-67
2021/10/19 07:04:44;;;;;;;20.23;8.80;;;11.30;74.70;;;;;;4973525;28;20490;-69
2021/10/19 07:07:10;;;;;;;20.63;9.63;;;;;;;;;;4975096;28;20042;-70
2021/10/19 07:09:36;;;;;;;17.15;8.45;;;;;;;;;;4976934;28;20097;-71
2021/10/19 07:12:03;;;;;;;20.10;8.70;;;11.60;98.00;;;;;;4977077;28;20108;-69
2021/10/19 07:14:29;;;;;;;21.95;9.27;;;11.50;74.40;;;;;;4977117;28;20026;-69
2021/10/19 07:16:55;;;;;;;22.90;9.05;;;11.60;74.20;;;;;;4977265;28;20369;-69
2021/10/19 07:19:21;;;;;;;13.85;8.15;;;11.70;74.00;;;;;;4977000;28;20091;-68
2021/10/19 07:21:46;;;;;;;15.25;7.40;;;11.90;85.50;;;;;;4976461;28;20033;-68
2021/10/19 07:24:12;;;;;;;11.88;6.78;;;11.90;74.40;;;;;;4953014;28;20503;-67
2021/10/19 07:26:38;;;;;;;15.38;7.38;;;12.00;74.30;;;;;;4976761;28;20388;-67
2021/10/19 07:29:04;;;;;;;13.57;7.15;;;12.00;74.10;;;;;;4976692;28;20451;-67
2021/10/19 07:31:30;;;;;;;17.60;8.02;;;12.10;73.70;;;;;;4976543;28;20059;-68
2021/10/19 07:33:55;;;;;;;19.05;8.93;;;12.10;73.60;;;;;;4976594;28;20026;-67
2021/10/19 07:36:21;;;;;;;15.00;7.72;;;12.20;73.40;;;;;;4976603;28;20077;-68
2021/10/19 07:38:48;;;;;;;12.45;8.30;;;12.40;91.00;;;;;;4975366;28;20037;-67
2021/10/19 07:41:14;;;;;;;12.82;8.35;;;12.30;72.90;;;;;;4975264;28;20027;-68
2021/10/19 07:43:40;;;;;;;22.92;8.60;;;12.40;72.80;;;;;;4976750;28;20541;-67
2021/10/19 07:46:06;;;;;;;18.20;8.43;;;12.50;73.00;;;;;;4975488;28;20023;-67
2021/10/19 07:48:32;;;;;;;21.33;8.32;;;12.60;73.40;;;;;;4976776;28;20475;-68
2021/10/19 07:50:57;;;;;;;12.13;8.20;;;12.90;79.40;;;;;;4976586;28;20101;-68
2021/10/19 07:53:23;;;;;;;21.45;8.70;;;12.80;74.30;;;;;;4976394;28;20023;-67
2021/10/19 07:55:49;;;;;;;17.17;8.77;;;;;;;;;;4976641;28;20117;-69
2021/10/19 07:58:15;;;;;;;30.25;9.38;;;;;;;;;;4976450;28;20166;-69
2021/10/19 08:00:41;;;;;;;15.93;8.43;;;13.10;85.30;;;;;;4976344;28;20031;-69
2021/10/19 08:03:07;;;;;;;14.88;8.15;;;13.20;82.80;;;;;;4975229;28;20034;-69
2021/10/19 08:05:33;;;;;;;18.77;9.20;;;13.20;85.80;;;;;;4976092;28;20419;-71
2021/10/19 08:08:06;;;;;;;24.40;7.95;;;;;;;;;;4976309;28;20033;-69
2021/10/19 08:10:33;;;;;;;15.10;8.25;;;13.30;94.40;;;;;;4976513;28;20062;-68
2021/10/19 08:12:58;;;;;;;22.33;8.80;;;13.40;76.70;;;;;;4976570;28;20027;-69
2021/10/19 08:15:24;;;;;;;13.60;8.65;;;13.40;81.40;;;;;;4975657;28;20049;-71
2021/10/19 08:17:49;;;;;;;23.90;8.93;;;13.50;79.90;;;;;;4975644;28;20078;-71
2021/10/19 08:20:16;;;;;;;23.92;8.82;;;13.60;81.20;;;;;;4976310;28;20023;-72
2021/10/19 08:22:42;;;;;;;18.73;8.50;;;13.70;86.70;;;;;;4976295;28;20109;-71
2021/10/19 08:25:09;;;;;;;10.23;7.25;;;13.70;74.70;;;;;;4974142;28;20027;-71
2021/10/19 08:27:37;;;;;;;11.80;7.38;;;13.80;81.20;;;;;;4975684;28;20484;-72
2021/10/19 08:30:05;;;;;;;10.65;7.10;;;13.90;74.80;;;;;;4975822;28;20058;-72
2021/10/19 08:32:31;;;;;;;13.65;7.88;;;;;;;;;;4976089;28;20425;-72
2021/10/19 08:34:56;;;;;;;13.88;6.65;;;14.00;95.40;;;;;;4976063;28;20534;-71
2021/10/19 08:37:22;;;;;;;8.45;6.60;;;14.10;76.70;;;;;;4976056;28;20043;-71
2021/10/19 08:39:48;;;;;;;12.25;6.68;;;14.10;71.00;;;;;;4974632;28;20038;-72
2021/10/19 08:42:14;;;;;;;10.57;6.55;;;14.20;70.80;;;;;;4976085;28;20034;-72
2021/10/19 08:44:41;;;;;;;12.10;7.05;;;14.30;73.70;;;;;;4975785;28;20106;-72
2021/10/19 08:47:07;;;;;;;9.95;6.10;;;14.40;82.10;;;;;;4975672;28;20034;-69
2021/10/19 08:49:33;;;;;;;9.23;6.30;;;14.40;75.70;;;;;;4975675;28;20031;-71
2021/10/19 08:51:59;;;;;;;13.65;5.75;;;14.50;81.10;;;;;;4975876;28;20098;-72
2021/10/19 08:54:25;;;;;;;8.10;5.93;;;14.60;81.00;;;;;;4975745;28;20042;-72
2021/10/19 08:56:51;;;;;;;10.40;5.75;;;14.70;74.70;;;;;;4975585;28;20065;-71
2021/10/19 08:59:25;;;;;;;11.48;6.50;;;14.70;68.60;;;;;;4975438;28;20495;-69
2021/10/19 09:01:56;;;;;;;10.20;6.07;;;14.80;68.80;;;;;;4975141;28;20376;-71
2021/10/19 09:04:29;;;;;;;8.70;5.47;;;14.70;67.50;;;;;;4974505;28;20033;-70
2021/10/19 09:06:55;;;;;;;11.40;6.05;;;14.80;67.30;;;;;;4974728;28;20106;-72
2021/10/19 09:09:24;;;;;;;8.27;5.68;;;14.90;66.80;;;;;;4975502;28;20030;-72
2021/10/19 09:11:52;;;;;;;13.73;5.70;;;14.90;66.80;;;;;;4975161;28;20026;-70
2021/10/19 09:14:19;;;;;;;8.27;5.53;;;15.20;84.90;;;;;;4975211;28;20086;-71
2021/10/19 09:16:52;;;;;;;7.78;5.22;;;15.10;67.10;;;;;;4975067;28;20357;-70
2021/10/19 09:19:21;;;;;;;9.07;5.82;;;15.20;66.80;;;;;;4975061;28;20030;-72
2021/10/19 09:22:08;;;;;;;11.70;6.10;;;15.40;74.50;;;;;;4974385;28;20045;-72
2021/10/19 09:24:38;;;;;;;10.93;5.97;;;15.50;70.40;;;;;;4974857;28;20118;-71
2021/10/19 09:27:06;;;;;;;9.73;5.25;;;15.40;65.40;;;;;;4975057;28;20126;-71
2021/10/19 09:29:51;;;;;;;6.75;4.65;;;15.50;65.80;;;;;;4974303;28;20027;-72
2021/10/19 09:32:18;;;;;;;7.90;5.22;;;15.60;66.10;;;;;;4975035;28;20038;-72
2021/10/19 09:34:45;;;;;;;8.40;5.20;;;15.70;67.60;;;;;;4975172;28;20062;-72
2021/10/19 09:37:18;;;;;;;7.55;5.15;;;15.80;67.80;;;;;;4974778;28;20034;-72
2021/10/19 09:39:49;;;;;;;8.43;5.05;;;15.80;79.30;;;;;;4974720;28;20067;-72
2021/10/19 09:42:27;;;;;;;9.63;5.38;;;15.80;65.50;;;;;;4974934;28;20034;-72
2021/10/19 09:44:58;;;;;;;5.72;4.70;;;15.80;64.60;;;;;;4974632;28;20126;-72
2021/10/19 09:47:37;;;;;;;6.03;4.20;;;15.90;64.20;;;;;;4974479;28;20030;-72
2021/10/19 09:50:08;;;;;;;6.85;4.45;;;16.00;64.20;;;;;;4972459;28;20357;-72
2021/10/19 09:52:37;;;;;;;6.95;3.92;;;16.10;64.80;;;;;;4974072;28;20026;-72
2021/10/19 09:55:07;;;;;;;13.10;4.50;;;16.30;74.50;;;;;;4974744;28;20396;-72
2021/10/19 09:57:34;;;;;;;9.18;4.60;;;16.40;68.80;;;;;;4974240;28;20047;-72
2021/10/19 10:00:01;;;;;;;10.43;4.60;;;16.40;70.80;;;;;;4973801;28;20546;-71
2021/10/19 10:02:28;;;;;;;5.95;4.07;;;16.60;77.70;;;;;;4972499;28;20030;-72
2021/10/19 10:04:53;;;;;;;9.82;4.30;;;16.60;75.30;;;;;;4974154;28;20033;-72
2021/10/19 10:07:21;;;;;;;29.73;5.50;;;16.70;68.80;;;;;;4974009;28;20106;-71
2021/10/19 10:09:48;;;;;;;7.60;3.92;;;16.80;69.60;;;;;;4974030;28;20038;-72
2021/10/19 10:12:13;;;;;;;7.35;3.83;;;16.80;62.20;;;;;;4974231;28;20058;-71
2021/10/19 10:14:47;;;;;;;5.20;3.45;;;16.80;61.20;;;;;;4974146;28;20073;-72
2021/10/19 10:17:14;;;;;;;7.75;3.80;;;16.70;60.80;;;;;;4971887;28;20046;-72
2021/10/19 10:19:41;;;;;;;3.90;3.10;;;16.70;60.20;;;;;;4973962;28;20097;-70
2021/10/19 10:22:28;;;;;;;5.13;3.50;;;16.70;60.10;;;;;;4974106;28;20026;-72
2021/10/19 10:25:10;;;;;;;6.40;3.00;;;16.70;59.10;;;;;;4974006;28;20027;-72
2021/10/19 10:27:37;;;;;;;4.05;2.92;;;16.70;61.60;;;;;;4974040;28;20039;-71
2021/10/19 10:30:04;;;;;;;4.47;3.33;;;16.70;63.20;;;;;;4973609;28;20423;-69
2021/10/19 10:32:37;;;;;;;4.15;3.17;;;16.60;65.80;;;;;;4973701;28;20030;-71
2021/10/19 10:35:05;;;;;;;5.03;3.45;;;16.60;66.00;;;;;;4973957;28;20046;-71
2021/10/19 10:37:38;;;;;;;5.20;3.38;;;16.80;65.80;;;;;;4973615;28;20047;-72
2021/10/19 10:40:05;;;;;;;7.93;3.58;;;16.90;63.70;;;;;;4973837;28;20030;-69
2021/10/19 10:42:35;;;;;;;6.47;3.88;;;17.00;62.90;;;;;;4976960;28;20019;-72
2021/10/19 10:45:01;;;;;;;4.80;3.45;;;17.10;60.10;;;;;;4977947;28;20188;-72
2021/10/19 10:47:28;;;;;;;7.20;3.50;;;17.30;60.10;;;;;;4977983;28;20066;-72
2021/10/19 10:49:54;;;;;;;6.20;3.30;;;17.40;58.90;;;;;;4977805;28;20027;-72
2021/10/19 10:52:19;;;;;;;6.22;3.25;;;17.40;67.40;;;;;;4976094;28;20411;-73
2021/10/19 10:54:55;;;;;;;4.55;3.50;;;17.50;59.40;;;;;;4975098;28;20027;-72
2021/10/19 10:57:21;;;;;;;4.90;3.28;;;17.50;57.10;;;;;;4974899;28;20042;-71
2021/10/19 10:59:56;;;;;;;4.68;3.35;;;17.50;56.40;;;;;;4977567;28;20495;-69
2021/10/19 11:02:26;;;;;;;6.30;3.10;;;17.60;56.10;;;;;;4977704;28;20019;-71
2021/10/19 11:04:55;;;;;;;6.05;3.63;;;17.90;69.10;;;;;;4977676;28;20438;-74
2021/10/19 11:07:29;;;;;;;4.75;3.50;;;17.90;55.90;;;;;;4976292;28;20023;-70
2021/10/19 11:09:55;;;;;;;5.70;3.33;;;18.10;63.40;;;;;;4977665;28;20026;-72
2021/10/19 11:12:21;;;;;;;5.85;3.53;;;18.00;55.70;;;;;;4977364;28;20034;-72
2021/10/19 11:14:47;;;;;;;6.97;3.58;;;18.00;54.90;;;;;;4976961;28;20022;-70
2021/10/19 11:17:13;;;;;;;8.43;3.80;;;18.00;54.80;;;;;;4976896;28;20372;-70
2021/10/19 11:19:38;;;;;;;7.15;3.60;;;18.00;54.40;;;;;;4976859;28;20031;-72
2021/10/19 11:22:08;;;;;;;7.60;3.55;;;17.90;54.60;;;;;;4976525;28;20019;-71
2021/10/19 11:24:36;;;;;;;8.43;3.72;;;17.80;55.20;;;;;;4976748;28;20050;-71
2021/10/19 11:27:04;;;;;;;5.20;3.92;;;17.80;55.00;;;;;;4977065;28;20121;-71
2021/10/19 11:29:38;;;;;;;9.70;3.70;;;17.70;54.50;;;;;;4976729;28;20030;-71
2021/10/19 11:32:07;;;;;;;6.57;3.40;;;17.70;54.60;;;;;;4974349;28;20035;-72
2021/10/19 11:34:32;;;;;;;8.10;3.63;;;17.70;55.20;;;;;;4974637;28;20454;-72
2021/10/19 11:36:58;;;;;;;4.97;3.13;;;17.70;55.20;;;;;;4976143;28;20122;-72
2021/10/19 11:39:24;;;;;;;5.18;3.13;;;17.70;54.80;;;;;;4977018;28;20436;-69
2021/10/19 11:42:00;;;;;;;8.57;3.08;;;17.70;55.50;;;;;;4976722;28;20476;-70
2021/10/19 11:44:34;;;;;;;8.35;3.45;;;17.70;55.50;;;;;;4976930;28;20429;-71
2021/10/19 11:47:01;;;;;;;8.05;3.60;;;17.70;55.80;;;;;;4976883;28;20027;-69
2021/10/19 11:49:29;;;;;;;8.68;3.35;;;17.60;55.70;;;;;;4975080;28;20570;-71
2021/10/19 11:51:56;;;;;;;4.80;3.40;;;17.60;55.40;;;;;;4973785;28;20383;-71
2021/10/19 11:54:22;;;;;;;6.35;3.15;;;17.60;55.30;;;;;;4972853;28;20472;-70
2021/10/19 11:57:03;;;;;;;6.32;3.08;;;17.60;54.60;;;;;;4976061;28;20101;-69
2021/10/19 11:59:40;;;;;;;6.68;3.10;;;17.60;55.30;;;;;;4976780;28;20035;-69
2021/10/19 12:02:08;;;;;;;6.80;3.20;;;17.60;56.50;;;;;;4976366;28;20011;-74
2021/10/19 12:04:42;;;;;;;3.95;2.70;;;17.70;55.60;;;;;;4974907;28;20085;-73
2021/10/19 12:07:08;;;;;;;4.65;3.20;;;17.70;55.20;;;;;;4976347;28;20053;-74
2021/10/19 12:09:36;;;;;;;6.25;3.13;;;17.80;55.20;;;;;;4976268;28;20480;-72
2021/10/19 12:12:04;;;;;;;5.78;3.13;;;17.90;54.90;;;;;;4976091;28;20062;-73
2021/10/19 12:14:41;;;;;;;4.97;2.90;;;18.00;53.60;;;;;;4976161;28;20027;-72
2021/10/19 12:17:08;;;;;;;4.65;3.17;;;18.10;53.20;;;;;;4976171;28;20516;-73
2021/10/19 12:19:39;;;;;;;5.75;3.40;;;18.10;53.60;;;;;;4973704;28;20386;-71
2021/10/19 12:22:10;;;;;;;4.95;3.50;;;18.00;51.70;;;;;;4973439;28;20110;-70
2021/10/19 12:24:42;;;;;;;9.77;2.88;;;18.00;53.40;;;;;;4975133;28;20046;-73
2021/10/19 12:27:15;;;;;;;4.77;3.63;;;18.00;53.70;;;;;;4974413;28;20102;-72
2021/10/19 12:29:42;;;;;;;6.18;3.80;;;18.00;54.80;;;;;;4973755;28;20274;-71
2021/10/19 12:32:08;;;;;;;7.32;3.35;;;18.00;55.00;;;;;;4976111;28;20034;-72
2021/10/19 12:34:37;;;;;;;9.35;3.72;;;18.00;56.00;;;;;;4975740;28;20027;-71
2021/10/19 12:37:06;;;;;;;4.53;2.75;;;18.00;56.70;;;;;;4975764;28;20037;-72
2021/10/19 12:39:43;;;;;;;6.05;2.97;;;18.00;57.40;;;;;;4975982;28;20454;-70
2021/10/19 12:42:09;;;;;;;6.22;3.78;;;18.00;56.60;;;;;;4975861;28;20082;-72